Time;durP1;ratioP1;P1;durP2;ratioP2;P2;SDS_P1;SDS_P2;PMS_P1;PMS_P2;Temp;Humidity;BMP_temperature;BMP_pressure;BME280_temperature;BME280_humidity;BME280_pressure;Samples;Min_cycle;Max_cycle;Signal;HPM_P1;HPM_P2
2022/11/29 00:01:07;;;;;;;14.20;12.90;;;;;;;1.75;100.00;96873.47;4794461;28;21102;-68
2022/11/29 00:03:36;;;;;;;21.97;17.33;;;;;;;1.71;100.00;96859.88;4795380;28;20872;-70
2022/11/29 00:06:05;;;;;;;17.07;15.27;;;;;;;1.72;100.00;96869.38;5024988;28;20286;-72
2022/11/29 00:08:33;;;;;;;16.40;14.80;;;;;;;1.64;100.00;96871.00;5010451;28;20294;-71
2022/11/29 00:11:07;;;;;;;16.20;14.53;;;;;;;1.65;100.00;96864.81;5031344;28;20474;-71
2022/11/29 00:13:35;;;;;;;13.97;12.50;;;;;;;1.66;100.00;96863.84;4997552;28;20349;-72
2022/11/29 00:16:03;;;;;;;14.87;13.37;;;;;;;1.66;100.00;96861.22;4991691;28;20216;-71
2022/11/29 00:18:31;;;;;;;15.60;13.67;;;;;;;1.68;100.00;96867.97;5029004;28;20253;-68
2022/11/29 00:20:59;;;;;;;15.20;13.70;;;;;;;1.67;100.00;96866.31;4985286;28;20223;-72
2022/11/29 00:23:27;;;;;;;14.77;13.37;;;;;;;1.62;100.00;96863.28;5029149;28;20488;-71
2022/11/29 00:25:55;;;;;;;17.67;15.77;;;;;;;1.59;100.00;96864.38;5029278;28;20671;-73
2022/11/29 00:28:24;;;;;;;18.67;16.47;;;;;;;1.63;100.00;96857.09;5001825;28;20476;-72
2022/11/29 00:30:52;;;;;;;17.80;15.87;;;;;;;1.62;100.00;96865.88;5028071;28;20207;-71
2022/11/29 00:33:19;;;;;;;17.43;15.73;;;;;;;1.54;100.00;96861.38;5034258;28;20314;-70
2022/11/29 00:35:47;;;;;;;18.30;16.50;;;;;;;1.52;100.00;96863.28;4989383;28;20215;-72
2022/11/29 00:38:15;;;;;;;15.97;14.33;;;;;;;1.50;100.00;96853.94;5026955;28;21109;-71
2022/11/29 00:40:42;;;;;;;17.47;15.77;;;;;;;1.45;100.00;96854.31;5033365;28;20795;-71
2022/11/29 00:43:10;;;;;;;14.57;13.07;;;;;;;1.50;100.00;96854.72;5025506;28;20228;-72
2022/11/29 00:45:39;;;;;;;14.73;13.33;;;;;;;1.42;100.00;96857.19;5004790;28;20208;-71
2022/11/29 00:48:07;;;;;;;14.30;12.77;;;;;;;1.49;100.00;96857.50;5029702;28;20227;-72
2022/11/29 00:50:35;;;;;;;14.37;12.97;;;;;;;1.53;100.00;96857.09;4989232;28;20215;-71
2022/11/29 00:53:02;;;;;;;14.77;13.27;;;;;;;1.51;100.00;96860.78;5028159;28;20211;-71
2022/11/29 00:55:30;;;;;;;13.83;12.10;;;;;;;1.50;100.00;96861.75;5031139;28;20473;-71
2022/11/29 00:57:58;;;;;;;15.27;13.77;;;;;;;1.51;100.00;96853.78;5024490;28;20812;-72
2022/11/29 01:00:25;;;;;;;13.53;12.23;;;;;;;1.57;100.00;96861.09;5000706;28;20812;-73
2022/11/29 01:02:55;;;;;;;14.37;13.03;;;;;;;1.58;100.00;96864.50;5032176;28;20234;-72
2022/11/29 01:05:22;;;;;;;14.33;12.93;;;;;;;1.59;100.00;96863.56;4990661;28;20245;-73
2022/11/29 01:07:50;;;;;;;13.70;12.43;;;;;;;1.55;100.00;96859.56;5029618;28;20717;-70
2022/11/29 01:10:18;;;;;;;14.40;13.00;;;;;;;1.57;100.00;96857.63;5026520;28;20769;-73
2022/11/29 01:12:46;;;;;;;14.07;12.77;;;;;;;1.58;100.00;96854.91;5030595;28;20211;-73
2022/11/29 01:15:14;;;;;;;13.73;12.40;;;;;;;1.61;100.00;96863.44;5027085;28;20207;-73
2022/11/29 01:17:42;;;;;;;13.97;12.20;;;;;;;1.58;100.00;96860.13;4999704;28;20301;-72
2022/11/29 01:20:12;;;;;;;14.70;13.07;;;;;;;1.58;100.00;96861.91;5028187;28;20821;-70
2022/11/29 01:22:40;;;;;;;13.60;12.30;;;;;;;1.62;100.00;96862.47;4987654;28;20230;-71
2022/11/29 01:25:10;;;;;;;13.87;12.47;;;;;;;1.63;100.00;96861.50;5030221;28;20235;-70
2022/11/29 01:27:38;;;;;;;14.40;11.97;;;;;;;1.64;100.00;96861.34;5027096;28;20248;-71
2022/11/29 01:30:08;;;;;;;14.67;13.27;;;;;;;1.64;100.00;96863.97;5023206;28;20212;-73
2022/11/29 01:32:36;;;;;;;14.63;13.23;;;;;;;1.64;100.00;96866.56;5003039;28;20235;-72
2022/11/29 01:35:05;;;;;;;13.17;11.97;;;;;;;1.68;100.00;96867.16;5030462;28;20215;-70
2022/11/29 01:37:34;;;;;;;13.23;12.03;;;;;;;1.67;100.00;96868.91;4990245;28;20231;-69
2022/11/29 01:40:02;;;;;;;14.60;13.10;;;;;;;1.66;100.00;96863.84;5029060;28;20702;-72
2022/11/29 01:42:30;;;;;;;15.30;13.47;;;;;;;1.63;100.00;96870.16;5031343;28;20738;-73
2022/11/29 01:45:06;;;;;;;14.47;12.93;;;;;;;1.55;100.00;96864.78;5031452;28;20400;-72
2022/11/29 01:47:38;;;;;;;13.83;12.53;;;;;;;1.56;100.00;96866.44;4999277;28;20227;-73
2022/11/29 01:50:08;;;;;;;13.70;12.30;;;;;;;1.56;100.00;96856.84;5024996;28;20935;-71
2022/11/29 01:52:37;;;;;;;14.40;13.00;;;;;;;1.64;100.00;96865.78;4989178;28;20225;-72
2022/11/29 01:55:08;;;;;;;13.77;12.37;;;;;;;1.68;100.00;96859.31;5025312;28;20436;-71
2022/11/29 01:57:39;;;;;;;14.23;12.77;;;;;;;1.70;100.00;96858.19;5018074;28;20654;-70
2022/11/29 02:00:10;;;;;;;16.30;13.57;;;;;;;1.65;100.00;96859.59;5000194;28;20222;-71
2022/11/29 02:02:41;;;;;;;13.83;12.50;;;;;;;1.59;100.00;96864.38;4998649;28;20812;-70
2022/11/29 02:05:10;;;;;;;15.83;14.23;;;;;;;1.68;100.00;96865.34;5029559;28;20298;-71
2022/11/29 02:07:39;;;;;;;14.53;13.13;;;;;;;1.68;100.00;96861.91;5024269;28;20234;-73
2022/11/29 02:10:08;;;;;;;14.33;12.90;;;;;;;1.62;100.00;96863.28;4986099;28;20575;-72
2022/11/29 02:12:44;;;;;;;14.50;12.53;;;;;;;1.65;100.00;96860.41;4965685;28;20687;-70
2022/11/29 02:15:33;;;;;;;14.80;13.33;;;;;;;1.65;100.00;96862.19;5022901;28;21144;-71
2022/11/29 02:18:05;;;;;;;14.43;13.00;;;;;;;1.66;100.00;96854.22;4998041;28;20235;-71
2022/11/29 02:20:48;;;;;;;14.33;12.83;;;;;;;1.63;100.00;96859.72;5026727;28;20730;-70
2022/11/29 02:23:34;;;;;;;14.77;13.37;;;;;;;1.59;100.00;96858.31;5027786;28;20234;-72
2022/11/29 02:26:14;;;;;;;15.37;14.00;;;;;;;1.67;100.00;96860.28;4988504;28;24039;-72
2022/11/29 02:28:49;;;;;;;14.57;13.13;;;;;;;1.71;100.00;96857.25;5022441;28;21072;-72
2022/11/29 02:31:50;;;;;;;15.40;13.80;;;;;;;1.73;100.00;96864.94;5030584;28;20203;-72
2022/11/29 02:34:58;;;;;;;14.90;13.43;;;;;;;1.74;100.00;96866.59;5001844;28;20686;-72
2022/11/29 02:37:47;;;;;;;14.13;12.63;;;;;;;1.76;100.00;96859.44;4985784;28;20228;-71
2022/11/29 02:40:37;;;;;;;14.37;12.97;;;;;;;1.73;100.00;96865.78;5030083;28;20223;-73
2022/11/29 02:43:25;;;;;;;15.50;13.97;;;;;;;1.77;100.00;96862.91;4988583;28;20761;-72
2022/11/29 02:46:02;;;;;;;16.33;13.83;;;;;;;1.76;100.00;96861.25;5028347;28;20219;-72
2022/11/29 02:48:44;;;;;;;15.97;14.37;;;;;;;1.69;100.00;96855.72;5022570;28;20227;-71
2022/11/29 02:51:18;;;;;;;14.80;13.20;;;;;;;1.67;100.00;96857.66;5026326;28;20211;-71
2022/11/29 02:53:51;;;;;;;16.03;14.33;;;;;;;1.68;100.00;96865.34;5027567;28;20297;-70
2022/11/29 02:56:24;;;;;;;16.07;14.37;;;;;;;1.70;100.00;96868.63;5029435;28;20211;-71
2022/11/29 02:58:55;;;;;;;18.77;15.23;;;;;;;1.71;100.00;96864.25;4973250;28;20444;-71
2022/11/29 03:01:28;;;;;;;15.97;14.33;;;;;;;1.66;100.00;96864.66;5022345;28;20200;-71
2022/11/29 03:04:02;;;;;;;16.50;14.80;;;;;;;1.71;100.00;96866.88;4994090;28;20255;-73
2022/11/29 03:06:38;;;;;;;15.83;14.20;;;;;;;1.74;100.00;96863.97;5028713;28;20713;-71
2022/11/29 03:09:09;;;;;;;15.83;14.13;;;;;;;1.64;100.00;96863.97;5030802;28;20218;-71
2022/11/29 03:11:41;;;;;;;16.57;13.93;;;;;;;1.72;100.00;96871.13;5028274;28;20207;-72
2022/11/29 03:14:16;;;;;;;16.10;14.53;;;;;;;1.77;100.00;96878.56;4986169;28;20241;-72
2022/11/29 03:16:48;;;;;;;15.77;13.90;;;;;;;1.79;100.00;96874.03;4989245;28;20246;-72
2022/11/29 03:19:29;;;;;;;16.83;13.20;;;;;;;1.75;100.00;96886.53;4999219;28;20989;-71
2022/11/29 03:22:07;;;;;;;14.90;13.50;;;;;;;1.82;100.00;96885.03;4990769;28;20211;-73
2022/11/29 03:24:39;;;;;;;16.17;14.47;;;;;;;1.84;100.00;96879.69;5026807;28;20242;-71
2022/11/29 03:27:12;;;;;;;15.10;13.50;;;;;;;1.88;100.00;96887.09;5027366;28;20496;-71
2022/11/29 03:29:44;;;;;;;15.53;14.03;;;;;;;1.80;100.00;96884.34;4983417;28;20225;-72
2022/11/29 03:32:16;;;;;;;16.20;14.60;;;;;;;1.76;100.00;96888.19;5026515;28;20453;-71
2022/11/29 03:34:54;;;;;;;14.53;13.20;;;;;;;1.78;100.00;96882.84;4997999;28;20207;-71
2022/11/29 03:37:28;;;;;;;15.67;14.03;;;;;;;1.68;100.00;96885.44;5029497;28;21046;-72
2022/11/29 03:40:02;;;;;;;15.43;13.83;;;;;;;1.71;100.00;96888.59;5028105;28;20222;-72
2022/11/29 03:42:32;;;;;;;16.00;14.43;;;;;;;1.76;100.00;96885.56;5027054;28;20295;-69
2022/11/29 03:45:04;;;;;;;15.13;13.53;;;;;;;1.67;100.00;96881.16;4983936;28;20477;-72
2022/11/29 03:47:36;;;;;;;15.63;14.03;;;;;;;1.75;100.00;96883.91;5029954;28;20234;-73
2022/11/29 03:50:07;;;;;;;14.97;13.30;;;;;;;1.67;100.00;96878.56;4975274;28;20220;-71
2022/11/29 03:52:42;;;;;;;14.97;13.53;;;;;;;1.64;100.00;96890.09;5027074;28;20215;-72
2022/11/29 03:55:19;;;;;;;15.10;13.60;;;;;;;1.70;100.00;96891.34;5026520;28;20429;-72
2022/11/29 03:57:54;;;;;;;15.60;14.07;;;;;;;1.68;100.00;96885.44;5021947;28;20307;-73
2022/11/29 04:00:22;;;;;;;14.90;13.40;;;;;;;1.69;100.00;96889.69;4982432;28;20223;-71
2022/11/29 04:03:29;;;;;;;15.70;14.07;;;;;;;1.71;100.00;96888.59;5025230;28;20690;-70
2022/11/29 04:06:20;;;;;;;14.23;12.83;;;;;;;1.74;100.00;96895.34;5008470;28;20210;-71
2022/11/29 04:09:28;;;;;;;14.37;13.00;;;;;;;1.79;100.00;96894.94;5017802;28;20231;-71
2022/11/29 04:12:30;;;;;;;13.90;12.60;;;;;;;1.79;100.00;96890.53;5027665;28;20203;-69
2022/11/29 04:15:24;;;;;;;13.83;12.50;;;;;;;1.74;100.00;96887.50;4999980;28;20476;-70
2022/11/29 04:18:25;;;;;;;14.80;13.20;;;;;;;1.79;100.00;96887.09;5030006;28;20231;-71
2022/11/29 04:21:06;;;;;;;15.23;13.73;;;;;;;1.83;100.00;96891.91;4995646;28;20546;-73
2022/11/29 04:23:59;;;;;;;14.37;12.97;;;;;;;1.84;100.00;96890.94;5007957;28;20211;-70
2022/11/29 04:26:46;;;;;;;15.73;12.73;;;;;;;1.86;100.00;96889.00;5021096;28;20999;-72
2022/11/29 04:29:29;;;;;;;16.40;13.83;;;;;;;1.83;100.00;96894.50;5022645;28;20208;-71
2022/11/29 04:32:10;;;;;;;14.20;12.80;;;;;;;1.88;100.00;96894.91;5026007;28;20207;-71
2022/11/29 04:34:52;;;;;;;16.53;14.83;;;;;;;1.92;100.00;96899.91;4991205;28;20768;-69
2022/11/29 04:37:43;;;;;;;14.57;13.17;;;;;;;1.87;100.00;96897.69;5025097;28;20230;-70
2022/11/29 04:40:25;;;;;;;14.80;12.57;;;;;;;1.93;100.00;96904.97;5029788;28;20211;-70
2022/11/29 04:43:09;;;;;;;14.50;13.10;;;;;;;1.95;100.00;96897.00;4997017;28;20516;-70
2022/11/29 04:45:54;;;;;;;13.17;11.93;;;;;;;1.92;100.00;96898.09;5022965;28;20839;-70
2022/11/29 04:48:38;;;;;;;14.07;12.63;;;;;;;1.94;100.00;96906.63;5017629;28;20536;-69
2022/11/29 04:51:15;;;;;;;14.43;12.93;;;;;;;1.97;100.00;96905.53;5021755;28;20433;-70
2022/11/29 04:53:51;;;;;;;14.63;13.20;;;;;;;1.97;100.00;96903.75;5020947;28;20462;-70
2022/11/29 04:56:26;;;;;;;15.80;13.00;;;;;;;1.90;100.00;96907.06;5027797;28;20257;-72
2022/11/29 04:58:58;;;;;;;15.67;14.07;;;;;;;1.97;100.00;96910.78;4993555;28;20751;-70
2022/11/29 05:01:32;;;;;;;15.13;13.63;;;;;;;1.89;100.00;96908.81;5022844;28;20237;-69
2022/11/29 05:04:05;;;;;;;15.33;13.83;;;;;;;1.92;100.00;96911.16;5028192;28;20207;-70
2022/11/29 05:06:38;;;;;;;15.23;13.73;;;;;;;1.95;100.00;96918.72;4978479;28;20215;-70
2022/11/29 05:09:12;;;;;;;15.93;14.50;;;;;;;1.93;100.00;96915.44;5033487;28;20691;-71
2022/11/29 05:11:48;;;;;;;15.13;13.50;;;;;;;1.87;100.00;96913.38;5028692;28;20203;-71
2022/11/29 05:14:27;;;;;;;15.53;14.03;;;;;;;1.87;100.00;96923.81;5008904;28;20200;-72
2022/11/29 05:17:02;;;;;;;15.47;13.83;;;;;;;1.90;100.00;96920.94;5032708;28;20219;-71
2022/11/29 05:19:43;;;;;;;14.47;13.17;;;;;;;1.90;100.00;96923.53;5001057;28;20210;-69
2022/11/29 05:22:22;;;;;;;16.13;14.53;;;;;;;1.95;100.00;96923.97;4984997;28;20215;-70
2022/11/29 05:24:55;;;;;;;14.30;12.90;;;;;;;1.99;100.00;96921.91;5030848;28;20231;-70
2022/11/29 05:27:32;;;;;;;16.20;13.77;;;;;;;1.93;100.00;96923.28;5003812;28;20314;-71
2022/11/29 05:30:05;;;;;;;15.13;13.60;;;;;;;1.96;100.00;96925.59;5001815;28;20214;-69
2022/11/29 05:32:35;;;;;;;15.90;14.20;;;;;;;1.99;100.00;96922.72;5004503;28;20215;-69
2022/11/29 05:35:29;;;;;;;16.60;14.83;;;;;;;1.98;100.00;96926.28;5031690;28;20207;-68
2022/11/29 05:38:02;;;;;;;16.03;14.33;;;;;;;2.01;100.00;96927.81;4974702;28;20235;-71
2022/11/29 05:40:41;;;;;;;16.23;14.47;;;;;;;2.02;100.00;96932.91;5032410;28;20347;-71
2022/11/29 05:43:18;;;;;;;16.20;14.50;;;;;;;2.07;100.00;96931.66;4981229;28;20214;-71
2022/11/29 05:45:52;;;;;;;16.43;14.63;;;;;;;2.07;100.00;96937.72;5030357;28;20685;-71
2022/11/29 05:48:25;;;;;;;17.93;16.00;;;;;;;2.08;100.00;96936.75;5030116;28;20225;-69
2022/11/29 05:51:02;;;;;;;17.90;16.03;;;;;;;2.08;100.00;96939.38;5031287;28;20258;-72
2022/11/29 05:53:35;;;;;;;16.97;15.27;;;;;;;2.01;100.00;96936.47;4986675;28;20238;-71
2022/11/29 05:56:06;;;;;;;21.90;19.70;;;;;;;2.07;100.00;96934.28;5029418;28;20226;-71
2022/11/29 05:58:43;;;;;;;29.80;26.70;;;;;;;2.10;100.00;96934.84;5001312;28;20227;-70
2022/11/29 06:01:20;;;;;;;30.57;27.57;;;;;;;2.10;100.00;96942.69;4994410;28;20215;-69
2022/11/29 06:03:56;;;;;;;41.37;37.20;;;;;;;2.09;100.00;96940.22;5028102;28;20211;-71
2022/11/29 06:06:31;;;;;;;34.73;31.20;;;;;;;2.13;100.00;96944.22;5028553;28;20230;-70
2022/11/29 06:09:04;;;;;;;31.87;28.73;;;;;;;2.14;100.00;96940.63;4986808;28;20450;-70
2022/11/29 06:11:35;;;;;;;29.27;26.40;;;;;;;2.12;100.00;96943.38;5029720;28;20310;-70
2022/11/29 06:14:07;;;;;;;26.50;23.93;;;;;;;2.13;100.00;96946.81;5021202;28;20211;-70
2022/11/29 06:16:46;;;;;;;28.13;25.30;;;;;;;2.17;100.00;96949.00;5019027;28;20241;-70
2022/11/29 06:19:40;;;;;;;33.73;27.93;;;;;;;2.14;100.00;96945.84;5029459;28;20823;-72
2022/11/29 06:22:20;;;;;;;23.77;20.40;;;;;;;2.11;100.00;96948.75;5029338;28;20203;-70
2022/11/29 06:24:57;;;;;;;23.53;20.20;;;;;;;2.12;100.00;96953.00;4983970;28;20232;-70
2022/11/29 06:27:39;;;;;;;23.80;20.47;;;;;;;2.17;100.00;96942.97;4974622;28;20234;-70
2022/11/29 06:30:09;;;;;;;23.97;21.47;;;;;;;2.16;100.00;96957.00;5024651;28;20524;-72
2022/11/29 06:32:45;;;;;;;23.57;21.07;;;;;;;2.20;100.00;96957.53;5029612;28;20211;-72
2022/11/29 06:35:24;;;;;;;23.77;20.43;;;;;;;2.18;100.00;96957.69;4998353;28;21093;-71
2022/11/29 06:37:55;;;;;;;24.07;21.53;;;;;;;2.14;100.00;96962.34;5025487;28;20231;-72
2022/11/29 06:40:23;;;;;;;24.37;20.33;;;;;;;2.21;100.00;96967.88;5031176;28;20608;-69
2022/11/29 06:42:50;;;;;;;21.93;19.63;;;;;;;2.22;100.00;96969.53;4980053;28;20227;-70
2022/11/29 06:45:20;;;;;;;21.27;19.17;;;;;;;2.17;100.00;96967.31;5031783;28;20635;-71
2022/11/29 06:47:53;;;;;;;20.33;18.30;;;;;;;2.24;100.00;96970.22;5022202;28;20254;-71
2022/11/29 06:50:31;;;;;;;20.43;18.40;;;;;;;2.27;100.00;96974.31;5029310;28;20398;-70
2022/11/29 06:53:04;;;;;;;21.13;18.87;;;;;;;2.27;100.00;96972.56;5026990;28;20199;-70
2022/11/29 06:55:38;;;;;;;20.53;18.43;;;;;;;2.24;100.00;96972.81;5032103;28;20757;-72
2022/11/29 06:58:13;;;;;;;19.73;17.77;;;;;;;2.23;100.00;96978.16;4981385;28;20424;-71
2022/11/29 07:00:45;;;;;;;19.77;17.20;;;;;;;2.04;100.00;96979.81;5025671;28;20211;-70
2022/11/29 07:03:31;;;;;;;20.53;18.43;;;;;;;2.19;100.00;96974.19;4998013;28;20960;-73
2022/11/29 07:05:59;;;;;;;21.50;19.20;;;;;;;2.26;100.00;96986.59;5029026;28;20883;-72
2022/11/29 07:08:27;;;;;;;20.67;18.57;;;;;;;2.06;100.00;96984.91;5030107;28;20598;-71
2022/11/29 07:10:55;;;;;;;27.17;21.87;;;;;;;2.03;100.00;96986.81;5029594;28;20261;-70
2022/11/29 07:13:23;;;;;;;21.97;19.17;;;;;;;2.00;100.00;96989.69;4984282;28;20219;-72
2022/11/29 07:16:00;;;;;;;23.27;20.93;;;;;;;2.13;100.00;96991.25;5024160;28;20207;-69
2022/11/29 07:18:34;;;;;;;22.93;19.70;;;;;;;2.10;100.00;96991.53;5028216;28;20230;-72
2022/11/29 07:21:10;;;;;;;19.70;17.67;;;;;;;1.97;100.00;96992.59;5027248;28;20203;-71
2022/11/29 07:23:43;;;;;;;21.57;19.27;;;;;;;1.94;100.00;96992.03;5030318;28;20203;-70
2022/11/29 07:26:20;;;;;;;22.47;18.80;;;;;;;1.97;100.00;96991.78;5025337;28;20845;-70
2022/11/29 07:29:07;;;;;;;22.53;19.73;;;;;;;1.88;100.00;96994.22;4977564;28;20487;-70
2022/11/29 07:31:44;;;;;;;22.43;19.37;;;;;;;1.93;100.00;96998.22;5026319;28;20610;-72
2022/11/29 07:34:21;;;;;;;23.90;19.50;;;;;;;2.01;100.00;97001.81;5018814;28;20375;-70
2022/11/29 07:36:53;;;;;;;22.00;19.73;;;;;;;2.13;100.00;97001.72;5027508;28;20206;-71
2022/11/29 07:39:29;;;;;;;23.00;19.90;;;;;;;2.22;100.00;97006.13;5029564;28;20669;-71
2022/11/29 07:42:02;;;;;;;21.97;19.83;;;;;;;2.24;100.00;97008.59;5023382;28;20490;-69
2022/11/29 07:44:36;;;;;;;21.43;19.37;;;;;;;2.26;100.00;96999.66;4983316;28;20524;-72
2022/11/29 07:47:03;;;;;;;25.33;20.50;;;;;;;2.38;100.00;97002.97;5024707;28;20227;-71
2022/11/29 07:49:32;;;;;;;30.47;21.77;;;;;;;2.39;100.00;97011.63;5025665;28;20222;-71
2022/11/29 07:52:00;;;;;;;21.37;19.03;;;;;;;2.20;100.00;97010.66;5024409;28;20641;-71
2022/11/29 07:54:28;;;;;;;24.23;21.70;;;;;;;2.21;100.00;97007.09;5027355;28;20730;-70
2022/11/29 07:56:55;;;;;;;23.80;21.20;;;;;;;2.25;100.00;97005.84;5027775;28;20742;-69
2022/11/29 07:59:23;;;;;;;22.47;20.07;;;;;;;2.22;100.00;97005.28;4942492;28;20823;-70
2022/11/29 08:01:50;;;;;;;23.60;21.10;;;;;;;2.08;100.00;97004.72;5024737;28;20216;-71
2022/11/29 08:04:18;;;;;;;25.97;23.17;;;;;;;2.13;100.00;97010.38;5026458;28;20329;-71
2022/11/29 08:06:47;;;;;;;25.97;22.40;;;;;;;2.14;100.00;97008.59;4999429;28;20246;-70
2022/11/29 08:09:15;;;;;;;25.40;22.77;;;;;;;2.14;100.00;97011.19;5022599;28;20211;-70
2022/11/29 08:11:43;;;;;;;30.73;26.77;;;;;;;2.15;100.00;97011.06;5031033;28;20207;-71
2022/11/29 08:14:15;;;;;;;25.43;22.27;;;;;;;2.16;100.00;97019.75;4996175;28;20211;-71
2022/11/29 08:16:45;;;;;;;22.63;20.20;;;;;;;2.16;100.00;97022.34;5025771;28;20211;-70
2022/11/29 08:19:13;;;;;;;21.67;19.00;;;;;;;2.31;100.00;97014.94;5024349;28;20239;-70
2022/11/29 08:21:43;;;;;;;21.57;19.33;;;;;;;2.11;100.00;97022.75;4995867;28;20720;-71
2022/11/29 08:24:12;;;;;;;23.63;20.90;;;;;;;2.11;100.00;97021.94;5027715;28;20207;-71
2022/11/29 08:26:40;;;;;;;23.83;21.30;;;;;;;2.18;100.00;97017.81;5027940;28;20223;-70
2022/11/29 08:29:08;;;;;;;24.10;20.97;;;;;;;2.22;100.00;97024.41;5027666;28;20200;-70
2022/11/29 08:31:35;;;;;;;25.10;22.43;;;;;;;2.27;100.00;97024.00;4982299;28;20208;-71
2022/11/29 08:34:05;;;;;;;21.97;19.67;;;;;;;2.45;100.00;97029.38;4976010;28;20594;-72
2022/11/29 08:36:33;;;;;;;23.87;19.80;;;;;;;2.35;100.00;97025.94;5025379;28;20715;-70
2022/11/29 08:39:01;;;;;;;20.90;18.70;;;;;;;2.34;100.00;97022.50;5027325;28;20381;-70
2022/11/29 08:41:37;;;;;;;25.03;19.90;;;;;;;2.30;100.00;97031.59;5033757;28;20217;-69
2022/11/29 08:44:05;;;;;;;22.80;20.40;;;;;;;2.46;100.00;97029.25;5029608;28;20230;-70
2022/11/29 08:49:18;;;;;;;24.57;21.47;;;;;;;2.48;100.00;97030.91;4985225;28;20216;-71
2022/11/29 08:51:46;;;;;;;22.70;19.73;;;;;;;2.59;100.00;97034.22;5028656;28;20200;-70
2022/11/29 08:54:12;;;;;;;22.03;18.57;;;;;;;2.46;100.00;97028.41;5030951;28;20204;-70
2022/11/29 08:56:41;;;;;;;23.03;18.87;;;;;;;2.48;100.00;97041.38;5029740;28;20199;-70
2022/11/29 08:59:29;;;;;;;23.73;18.17;;;;;;;2.62;100.00;97040.16;5032873;28;20235;-70
2022/11/29 09:01:57;;;;;;;21.47;18.87;;;;;;;2.56;100.00;97038.91;5026308;28;20262;-70
2022/11/29 09:04:24;;;;;;;21.67;19.30;;;;;;;2.71;100.00;97045.38;4984420;28;20212;-70
2022/11/29 09:06:52;;;;;;;20.53;18.33;;;;;;;2.68;100.00;97045.66;5027468;28;20246;-72
2022/11/29 09:09:20;;;;;;;18.97;16.97;;;;;;;2.87;100.00;97046.63;5030609;28;20207;-71
2022/11/29 09:11:48;;;;;;;20.60;18.50;;;;;;;2.94;100.00;97039.84;5027831;28;20397;-71
2022/11/29 09:14:17;;;;;;;21.87;19.53;;;;;;;3.08;100.00;97045.66;5030785;28;20204;-70
2022/11/29 09:16:45;;;;;;;22.73;18.73;;;;;;;2.85;100.00;97057.25;5027429;28;20196;-70
2022/11/29 09:19:13;;;;;;;21.00;18.80;;;;;;;3.09;100.00;97048.09;5026750;28;20668;-71
2022/11/29 09:21:41;;;;;;;22.73;19.37;;;;;;;3.01;100.00;97051.41;4983331;28;20226;-70
2022/11/29 09:24:09;;;;;;;17.80;16.03;;;;;;;2.92;100.00;97052.25;5030777;28;20211;-70
2022/11/29 09:26:39;;;;;;;21.07;18.23;;;;;;;2.92;100.00;97060.09;5029523;28;20492;-72
2022/11/29 09:29:08;;;;;;;21.43;17.70;;;;;;;2.83;100.00;97059.13;5028841;28;20784;-72
2022/11/29 09:31:36;;;;;;;18.73;16.33;;;;;;;2.89;100.00;97061.22;5030440;28;20633;-70
2022/11/29 09:34:04;;;;;;;19.17;16.50;;;;;;;3.00;100.00;97052.38;5028837;28;20449;-72
2022/11/29 09:36:31;;;;;;;20.00;17.90;;;;;;;2.98;100.00;97061.34;4984882;28;20211;-70
2022/11/29 09:39:02;;;;;;;18.53;15.73;;;;;;;3.00;100.00;97057.63;5028019;28;20578;-71
2022/11/29 09:41:41;;;;;;;18.73;16.73;;;;;;;3.12;100.00;97062.72;5031332;28;20453;-71
2022/11/29 09:44:21;;;;;;;21.30;19.07;;;;;;;3.22;100.00;97055.66;5028455;28;20383;-71
2022/11/29 09:46:53;;;;;;;18.40;15.37;;;;;;;3.11;100.00;97055.84;5027604;28;20226;-71
2022/11/29 09:49:48;;;;;;;15.87;14.27;;;;;;;3.02;100.00;97060.91;5025838;28;20211;-72
2022/11/29 09:52:22;;;;;;;17.70;15.83;;;;;;;3.33;100.00;97052.06;4978878;28;20203;-71
2022/11/29 09:54:55;;;;;;;18.13;14.87;;;;;;;3.49;100.00;97059.34;5027161;28;20736;-70
2022/11/29 09:57:25;;;;;;;15.07;13.50;;;;;;;3.31;100.00;97061.88;4999582;28;20277;-71
2022/11/29 09:59:56;;;;;;;15.13;13.53;;;;;;;3.27;100.00;97060.50;5024389;28;20200;-69
2022/11/29 10:02:30;;;;;;;16.00;14.40;;;;;;;3.41;100.00;97062.66;5030487;28;20211;-71
2022/11/29 10:05:02;;;;;;;15.43;13.80;;;;;;;3.54;100.00;97064.97;5026452;28;20199;-72
2022/11/29 10:07:33;;;;;;;15.47;13.97;;;;;;;3.41;100.00;97065.28;4982652;28;20243;-72
2022/11/29 10:10:04;;;;;;;15.37;13.57;;;;;;;3.38;100.00;97062.94;5023415;28;20322;-70
2022/11/29 10:12:36;;;;;;;14.03;12.73;;;;;;;3.37;100.00;97056.06;5015946;28;20646;-71
2022/11/29 10:15:12;;;;;;;15.07;13.47;;;;;;;3.08;100.00;97062.16;5028604;28;20894;-68
2022/11/29 10:17:43;;;;;;;14.47;12.97;;;;;;;3.28;100.00;97055.09;5032199;28;20222;-70
2022/11/29 10:20:14;;;;;;;16.03;14.33;;;;;;;3.17;100.00;97057.88;5023481;28;20345;-72
2022/11/29 10:22:48;;;;;;;15.43;13.80;;;;;;;3.30;100.00;97053.16;5017129;28;20219;-70
2022/11/29 10:25:23;;;;;;;17.80;14.57;;;;;;;3.23;100.00;97053.88;5022114;28;20207;-71
2022/11/29 10:27:51;;;;;;;15.57;13.97;;;;;;;3.19;100.00;97059.38;5025968;28;20250;-70
2022/11/29 10:30:20;;;;;;;18.90;13.80;;;;;;;3.41;100.00;97060.03;5025341;28;20218;-71
2022/11/29 10:32:52;;;;;;;15.20;13.70;;;;;;;3.32;100.00;97061.69;5025433;28;20922;-70
2022/11/29 10:35:20;;;;;;;15.27;12.97;;;;;;;3.37;100.00;97058.66;5031903;28;20205;-69
2022/11/29 10:37:56;;;;;;;17.93;16.03;;;;;;;3.53;100.00;97057.25;4993503;28;20289;-70
2022/11/29 10:40:47;;;;;;;17.50;15.70;;;;;;;3.55;100.00;97056.16;5030394;28;20272;-72
2022/11/29 10:43:15;;;;;;;16.23;14.50;;;;;;;3.34;100.00;97048.47;4945131;28;20513;-70
2022/11/29 10:45:49;;;;;;;15.70;14.13;;;;;;;3.37;100.00;97060.44;5027464;28;20426;-70
2022/11/29 10:48:19;;;;;;;24.83;19.77;;;;;;;3.29;100.00;97053.31;4998656;28;20238;-71
2022/11/29 10:50:49;;;;;;;16.30;14.60;;;;;;;3.09;100.00;97048.09;5023682;28;20206;-71
2022/11/29 10:53:18;;;;;;;16.10;14.63;;;;;;;3.03;100.00;97057.38;5027610;28;20281;-71
2022/11/29 10:55:50;;;;;;;15.77;14.23;;;;;;;3.26;100.00;97056.22;5019315;28;20867;-71
2022/11/29 10:58:19;;;;;;;14.67;13.33;;;;;;;3.29;100.00;97054.13;4983270;28;20231;-70
2022/11/29 11:00:57;;;;;;;15.70;14.10;;;;;;;3.30;100.00;97053.16;5025594;28;20444;-71
2022/11/29 11:03:32;;;;;;;15.03;13.57;;;;;;;3.22;100.00;97049.59;5007347;28;20235;-71
2022/11/29 11:06:04;;;;;;;16.30;14.03;;;;;;;3.20;100.00;97047.13;5028061;28;20287;-70
2022/11/29 11:08:33;;;;;;;14.97;13.47;;;;;;;3.00;100.00;97052.38;5022724;28;20977;-70
2022/11/29 11:11:02;;;;;;;15.53;13.93;;;;;;;3.18;100.00;97056.91;5029870;28;20687;-71
2022/11/29 11:13:31;;;;;;;15.13;13.53;;;;;;;3.27;100.00;97060.50;4980823;28;20591;-70
2022/11/29 11:16:09;;;;;;;14.17;12.77;;;;;;;3.26;100.00;97056.22;5027708;28;20203;-71
2022/11/29 11:18:37;;;;;;;15.20;13.77;;;;;;;3.49;100.00;97067.19;4994134;28;20825;-69
2022/11/29 11:21:08;;;;;;;15.43;13.90;;;;;;;3.24;100.00;97063.41;5027421;28;20237;-70
2022/11/29 11:23:37;;;;;;;14.60;13.13;;;;;;;3.28;100.00;97065.56;5025941;28;20721;-71
2022/11/29 11:26:11;;;;;;;14.20;12.70;;;;;;;3.33;100.00;97059.94;5028928;28;20203;-69
2022/11/29 11:28:42;;;;;;;15.27;12.93;;;;;;;3.28;100.00;97065.56;4979221;28;21374;-71
2022/11/29 11:31:12;;;;;;;14.23;12.73;;;;;;;3.45;100.00;97064.03;5027229;28;20559;-71
2022/11/29 11:33:41;;;;;;;14.17;12.93;;;;;;;3.65;100.00;97063.97;4999672;28;21687;-71
2022/11/29 11:36:12;;;;;;;15.87;14.37;;;;;;;3.62;100.00;97057.22;4998344;28;20781;-71
2022/11/29 11:38:41;;;;;;;21.80;19.60;;;;;;;3.72;100.00;97062.44;5025984;28;20783;-70
2022/11/29 11:41:18;;;;;;;15.00;13.50;;;;;;;3.60;100.00;97064.41;5030318;28;20222;-70
2022/11/29 11:43:55;;;;;;;15.30;13.70;;;;;;;3.52;100.00;97066.06;4980753;28;20781;-73
2022/11/29 11:46:24;;;;;;;14.40;13.07;;;;;;;3.52;100.00;97068.69;5027480;28;20210;-71
2022/11/29 11:48:52;;;;;;;13.97;12.27;;;;;;;3.53;100.00;97070.34;5028400;28;20322;-72